Time;durP1;ratioP1;P1;durP2;ratioP2;P2;SDS_P1;SDS_P2;PMS_P1;PMS_P2;Temp;Humidity;BMP_temperature;BMP_pressure;BME280_temperature;BME280_humidity;BME280_pressure;Samples;Min_cycle;Max_cycle;Signal;HPM_P1;HPM_P2
2023/03/13 00:02:44;;;;;;;7.77;5.20;;;8.70;99.90;;;;;;10414405;28;20192;-78
2023/03/13 00:07:46;;;;;;;6.00;4.00;;;8.70;99.90;;;;;;10413172;28;20681;-78
2023/03/13 00:12:48;;;;;;;9.77;5.27;;;8.60;99.90;;;;;;10395064;28;20212;-77
2023/03/13 00:17:51;;;;;;;9.80;5.03;;;8.60;99.90;;;;;;10416157;28;20218;-77
2023/03/13 00:22:53;;;;;;;9.60;4.83;;;8.60;99.90;;;;;;10438552;28;20195;-78
2023/03/13 00:27:55;;;;;;;10.87;5.80;;;8.60;99.90;;;;;;10437619;28;20223;-77
2023/03/13 00:32:59;;;;;;;10.73;5.50;;;8.70;99.90;;;;;;10422061;28;20616;-79
2023/03/13 00:38:01;;;;;;;8.57;4.97;;;8.70;99.90;;;;;;10420529;28;20221;-77
2023/03/13 00:43:03;;;;;;;9.57;5.43;;;8.80;99.90;;;;;;10419246;28;20192;-77
2023/03/13 00:48:07;;;;;;;10.70;4.80;;;8.90;99.90;;;;;;10420428;28;20253;-77
2023/03/13 00:53:09;;;;;;;8.80;4.80;;;8.90;99.90;;;;;;10417105;28;20533;-78
2023/03/13 00:58:11;;;;;;;9.50;4.30;;;9.00;99.90;;;;;;10419032;28;20233;-79
2023/03/13 01:03:14;;;;;;;10.80;5.43;;;9.10;99.90;;;;;;10418690;28;20550;-78
2023/03/13 01:08:17;;;;;;;5.80;4.50;;;9.10;99.90;;;;;;10421975;28;20655;-79
2023/03/13 01:13:19;;;;;;;6.40;4.37;;;9.10;99.90;;;;;;10422163;28;20672;-78
2023/03/13 01:18:23;;;;;;;10.20;4.60;;;9.10;99.90;;;;;;10422219;28;20237;-78
2023/03/13 01:23:26;;;;;;;11.63;5.23;;;9.20;99.90;;;;;;10422752;28;20194;-79
2023/03/13 01:28:28;;;;;;;7.47;4.57;;;9.30;99.90;;;;;;10419579;28;20626;-78
2023/03/13 01:33:34;;;;;;;11.57;5.27;;;9.30;99.90;;;;;;10421124;28;20726;-78
2023/03/13 01:38:37;;;;;;;13.70;5.03;;;9.40;99.90;;;;;;10420628;28;20222;-78
2023/03/13 01:43:39;;;;;;;9.77;4.17;;;9.50;99.90;;;;;;10419178;28;20292;-78
2023/03/13 01:48:48;;;;;;;14.10;4.80;;;9.50;99.90;;;;;;10414855;28;20656;-78
2023/03/13 01:53:57;;;;;;;9.40;5.13;;;9.60;99.90;;;;;;10415626;28;20326;-78
2023/03/13 01:59:00;;;;;;;11.13;4.80;;;9.60;99.90;;;;;;10398203;28;20202;-79
2023/03/13 02:04:05;;;;;;;9.73;5.00;;;9.70;99.90;;;;;;10416654;28;20694;-78
2023/03/13 02:09:10;;;;;;;8.60;4.70;;;9.70;99.90;;;;;;10417166;28;20654;-78
2023/03/13 02:14:13;;;;;;;19.63;8.90;;;9.60;99.90;;;;;;10417920;28;20213;-79
2023/03/13 02:19:22;;;;;;;6.87;4.07;;;9.70;99.90;;;;;;10400125;28;20191;-77
2023/03/13 02:24:35;;;;;;;8.00;3.90;;;9.70;99.90;;;;;;10415154;28;20210;-78
2023/03/13 02:29:38;;;;;;;9.30;4.90;;;9.80;99.90;;;;;;10416198;28;20610;-79
2023/03/13 02:34:43;;;;;;;5.70;2.90;;;9.80;99.90;;;;;;10415109;28;20780;-78
2023/03/13 02:39:50;;;;;;;5.80;3.20;;;10.00;99.90;;;;;;10415468;28;20197;-77
2023/03/13 02:44:53;;;;;;;6.43;3.30;;;10.10;99.90;;;;;;10397802;28;20698;-78
2023/03/13 02:49:55;;;;;;;3.90;2.70;;;10.30;99.90;;;;;;10414315;28;20206;-79
2023/03/13 02:55:01;;;;;;;5.63;3.17;;;10.50;99.90;;;;;;10400700;28;20222;-78
2023/03/13 03:00:11;;;;;;;4.83;2.77;;;10.60;99.70;;;;;;10399296;28;20317;-79
2023/03/13 03:05:14;;;;;;;4.13;2.53;;;10.70;99.70;;;;;;10418550;28;20218;-78
2023/03/13 03:10:17;;;;;;;5.47;3.30;;;10.90;99.50;;;;;;10415108;28;20198;-80
2023/03/13 03:15:21;;;;;;;5.10;3.00;;;11.00;99.30;;;;;;10417567;28;20245;-77
2023/03/13 03:20:24;;;;;;;4.97;2.80;;;11.10;99.20;;;;;;10400104;28;20647;-79
2023/03/13 03:25:26;;;;;;;4.90;4.10;;;11.10;99.90;;;;;;10417507;28;20644;-78
2023/03/13 03:30:30;;;;;;;5.40;4.40;;;10.90;99.90;;;;;;10415039;28;20203;-79
2023/03/13 03:35:37;;;;;;;4.73;4.37;;;10.70;99.90;;;;;;10380346;28;20268;-80
2023/03/13 03:40:42;;;;;;;10.50;8.73;;;10.50;99.90;;;;;;10414960;28;20672;-80
2023/03/13 03:45:45;;;;;;;6.80;6.20;;;10.40;99.90;;;;;;10415841;28;20471;-79
2023/03/13 03:50:47;;;;;;;5.97;5.50;;;10.30;99.90;;;;;;10398788;28;20210;-81
2023/03/13 03:55:51;;;;;;;5.27;4.97;;;10.30;99.90;;;;;;10415710;28;20252;-80
2023/03/13 04:00:57;;;;;;;4.90;4.30;;;10.20;99.90;;;;;;10418063;28;20273;-81
2023/03/13 04:06:00;;;;;;;5.40;4.33;;;10.30;99.90;;;;;;10409876;28;20302;-80
2023/03/13 04:11:02;;;;;;;4.83;4.30;;;10.50;99.90;;;;;;10424374;28;20669;-79
2023/03/13 04:16:10;;;;;;;3.63;3.43;;;10.60;99.90;;;;;;10406939;28;20217;-80
2023/03/13 04:21:13;;;;;;;3.73;3.40;;;10.80;99.90;;;;;;10409807;28;20638;-81
2023/03/13 04:26:20;;;;;;;3.47;3.30;;;11.00;99.90;;;;;;10410324;28;20264;-80
2023/03/13 04:31:26;;;;;;;3.60;3.30;;;11.20;99.90;;;;;;10424258;28;20655;-81
2023/03/13 04:36:58;;;;;;;4.73;3.30;;;11.30;99.90;;;;;;10424624;28;20227;-80
2023/03/13 04:42:13;;;;;;;3.47;2.93;;;11.60;99.90;;;;;;10426201;28;20554;-78
2023/03/13 04:47:52;;;;;;;2.73;2.50;;;11.70;99.90;;;;;;10395445;28;20239;-78
2023/03/13 04:53:14;;;;;;;2.30;2.20;;;11.90;99.90;;;;;;10424445;28;20199;-79
2023/03/13 04:58:24;;;;;;;2.23;2.10;;;12.10;99.90;;;;;;10411058;28;20219;-79
2023/03/13 05:03:42;;;;;;;2.37;2.17;;;12.10;99.90;;;;;;10426119;28;20268;-80
2023/03/13 05:09:03;;;;;;;2.67;2.20;;;12.10;99.90;;;;;;10422483;28;20209;-78
2023/03/13 05:14:14;;;;;;;2.30;2.07;;;12.20;99.90;;;;;;10421554;28;20297;-77
2023/03/13 05:19:27;;;;;;;2.47;2.27;;;12.20;99.90;;;;;;10420945;28;20224;-78
2023/03/13 05:24:42;;;;;;;2.23;2.13;;;12.30;99.90;;;;;;10405506;28;20206;-79
2023/03/13 05:29:55;;;;;;;3.07;2.87;;;12.20;99.90;;;;;;10410447;28;20210;-78
2023/03/13 05:35:15;;;;;;;1.97;1.80;;;12.30;99.90;;;;;;10428328;28;20630;-78
2023/03/13 05:40:25;;;;;;;4.43;4.03;;;12.30;99.90;;;;;;10425539;28;20203;-79
2023/03/13 05:45:46;;;;;;;3.43;3.13;;;12.40;99.90;;;;;;10420782;28;20693;-79
2023/03/13 05:51:09;;;;;;;1.70;1.60;;;12.40;99.90;;;;;;10403137;28;20198;-78
2023/03/13 05:56:32;;;;;;;2.17;2.07;;;12.50;99.90;;;;;;10389041;28;20686;-78
2023/03/13 06:01:54;;;;;;;2.50;1.53;;;12.50;99.90;;;;;;10402061;28;20198;-80
2023/03/13 06:07:09;;;;;;;1.90;1.80;;;12.50;99.90;;;;;;10412149;28;20219;-79
2023/03/13 06:12:12;;;;;;;1.90;1.80;;;12.50;99.90;;;;;;10414319;28;20195;-80
2023/03/13 06:17:14;;;;;;;1.60;1.50;;;12.60;99.90;;;;;;10414336;28;20229;-79
2023/03/13 06:22:18;;;;;;;2.33;2.23;;;12.60;99.90;;;;;;10414951;28;20267;-79
2023/03/13 06:27:20;;;;;;;1.60;1.50;;;12.70;99.90;;;;;;10414252;28;20265;-79
2023/03/13 06:32:22;;;;;;;1.90;1.80;;;12.70;99.90;;;;;;10415690;28;20380;-79
2023/03/13 06:37:25;;;;;;;1.90;1.80;;;12.80;99.90;;;;;;10396037;28;20233;-80
2023/03/13 06:42:28;;;;;;;2.07;1.97;;;12.80;99.90;;;;;;10414939;28;20209;-79
2023/03/13 06:47:31;;;;;;;1.67;1.57;;;12.80;99.90;;;;;;10397616;28;20670;-80
2023/03/13 06:52:36;;;;;;;1.57;1.50;;;13.00;99.90;;;;;;10417036;28;20194;-81
2023/03/13 06:57:38;;;;;;;1.40;1.40;;;13.10;99.90;;;;;;10396465;28;20226;-80
2023/03/13 07:02:40;;;;;;;1.80;1.70;;;13.10;99.90;;;;;;10398249;28;20633;-80
2023/03/13 07:07:44;;;;;;;2.90;1.53;;;13.20;99.90;;;;;;10413060;28;20216;-80
2023/03/13 07:12:46;;;;;;;1.93;1.80;;;13.20;99.90;;;;;;10413029;28;20289;-80
2023/03/13 07:17:48;;;;;;;1.80;1.70;;;13.20;99.90;;;;;;10413997;28;20221;-80
2023/03/13 07:22:53;;;;;;;2.00;1.80;;;13.30;99.90;;;;;;10413735;28;20201;-79
2023/03/13 07:27:55;;;;;;;1.57;1.47;;;13.30;99.90;;;;;;10396055;28;20214;-81
2023/03/13 07:32:58;;;;;;;1.20;1.20;;;13.30;99.90;;;;;;10414609;28;20190;-81
2023/03/13 07:38:02;;;;;;;1.90;1.80;;;13.30;99.90;;;;;;10413465;28;20249;-81
2023/03/13 07:43:04;;;;;;;2.30;1.60;;;13.30;99.90;;;;;;10412194;28;20221;-81
2023/03/13 07:48:06;;;;;;;2.20;1.80;;;13.30;99.90;;;;;;10399080;28;20224;-81
2023/03/13 07:53:09;;;;;;;2.23;2.13;;;13.30;99.90;;;;;;10418168;28;20198;-81
2023/03/13 07:58:12;;;;;;;1.93;1.83;;;13.30;99.90;;;;;;10416937;28;20218;-81
2023/03/13 08:03:14;;;;;;;2.60;2.13;;;13.40;99.90;;;;;;10419041;28;20253;-80
2023/03/13 08:08:17;;;;;;;2.07;1.87;;;13.40;99.90;;;;;;10432652;28;20274;-81
2023/03/13 08:13:19;;;;;;;2.57;2.37;;;13.50;99.90;;;;;;10416672;28;20294;-79
2023/03/13 08:18:21;;;;;;;1.50;1.40;;;13.60;99.90;;;;;;10416182;28;20306;-81
2023/03/13 08:23:25;;;;;;;2.20;2.00;;;13.80;99.90;;;;;;10399998;28;20675;-79
2023/03/13 08:28:27;;;;;;;2.10;1.90;;;13.90;99.90;;;;;;10416360;28;20191;-81
2023/03/13 08:33:29;;;;;;;2.13;2.03;;;14.20;99.90;;;;;;10401593;28;20211;-80
2023/03/13 08:38:32;;;;;;;2.67;2.10;;;14.30;99.90;;;;;;10418173;28;20301;-81
2023/03/13 08:48:41;;;;;;;1.87;1.77;;;14.50;99.90;;;;;;10312484;28;20592;-82
2023/03/13 08:53:45;;;;;;;5.50;4.90;;;14.60;99.90;;;;;;10307250;28;20271;-82
2023/03/13 08:58:50;;;;;;;2.60;2.20;;;14.60;99.90;;;;;;10301751;28;20252;-81
2023/03/13 09:03:52;;;;;;;2.07;1.50;;;14.60;99.90;;;;;;10300320;28;20626;-81
2023/03/13 09:08:57;;;;;;;1.67;1.57;;;14.60;99.90;;;;;;10300357;28;20192;-83
2023/03/13 09:14:00;;;;;;;1.77;1.67;;;14.70;99.90;;;;;;10301283;28;20286;-82
2023/03/13 09:19:02;;;;;;;1.70;1.60;;;14.80;99.90;;;;;;10301430;28;20231;-82
2023/03/13 09:24:06;;;;;;;2.47;2.27;;;14.90;99.90;;;;;;10305625;28;20221;-82
2023/03/13 09:29:09;;;;;;;2.40;2.30;;;15.00;99.90;;;;;;10291774;28;20207;-83
2023/03/13 09:34:14;;;;;;;2.83;2.27;;;15.00;99.90;;;;;;10308300;28;20224;-82
2023/03/13 09:39:17;;;;;;;3.27;2.40;;;15.10;99.90;;;;;;10285551;28;20220;-80
2023/03/13 09:44:22;;;;;;;2.30;2.20;;;15.20;99.90;;;;;;10306640;28;20232;-83
2023/03/13 09:49:31;;;;;;;2.90;2.33;;;15.30;99.90;;;;;;10294967;28;20197;-81
2023/03/13 09:54:39;;;;;;;2.07;1.97;;;15.30;99.90;;;;;;10297333;28;20220;-84
2023/03/13 09:59:49;;;;;;;2.40;2.00;;;15.40;99.90;;;;;;10301366;28;20213;-84
2023/03/13 10:04:57;;;;;;;3.03;2.13;;;15.50;99.90;;;;;;10301812;28;20311;-84
2023/03/13 10:10:02;;;;;;;2.70;1.97;;;15.80;99.90;;;;;;10301365;28;20320;-82
2023/03/13 10:15:33;;;;;;;5.43;2.10;;;15.90;99.90;;;;;;10305655;28;20217;-81
2023/03/13 10:20:36;;;;;;;2.33;2.10;;;16.10;99.90;;;;;;10302195;28;20288;-81
2023/03/13 10:25:40;;;;;;;2.20;2.10;;;16.20;99.90;;;;;;10315973;28;20327;-82
2023/03/13 10:30:47;;;;;;;2.47;2.27;;;16.20;99.90;;;;;;10300944;28;20201;-80
2023/03/13 10:36:07;;;;;;;2.60;2.17;;;16.10;99.90;;;;;;10295563;28;20579;-80
2023/03/13 10:41:20;;;;;;;2.73;2.53;;;16.10;99.90;;;;;;10296392;28;20223;-82
2023/03/13 10:46:27;;;;;;;2.97;1.97;;;16.30;99.90;;;;;;10292111;28;20280;-79
2023/03/13 10:51:36;;;;;;;4.93;4.53;;;16.60;99.40;;;;;;10306063;28;20284;-82
2023/03/13 10:56:39;;;;;;;5.57;2.70;;;16.70;99.80;;;;;;10301875;28;20228;-83
2023/03/13 11:01:43;;;;;;;2.60;2.40;;;16.70;99.70;;;;;;10301942;28;20205;-82
2023/03/13 11:06:51;;;;;;;2.77;2.60;;;16.90;99.60;;;;;;10301698;28;20585;-82
2023/03/13 11:11:56;;;;;;;2.30;2.20;;;17.20;98.90;;;;;;10296041;28;20224;-82
2023/03/13 11:17:05;;;;;;;8.63;7.97;;;17.30;99.00;;;;;;10302946;28;20228;-82
2023/03/13 11:22:34;;;;;;;3.27;2.90;;;17.30;98.60;;;;;;10302873;28;20199;-81
2023/03/13 11:27:45;;;;;;;4.43;2.73;;;17.30;98.80;;;;;;10255340;28;20241;-81
2023/03/13 11:32:52;;;;;;;4.17;2.67;;;17.40;98.70;;;;;;10264798;28;20224;-81
2023/03/13 11:37:57;;;;;;;2.90;2.70;;;17.50;98.40;;;;;;10297168;28;20224;-81
2023/03/13 11:43:19;;;;;;;2.77;2.47;;;17.40;97.90;;;;;;10299887;28;20207;-81
2023/03/13 11:48:47;;;;;;;2.50;2.40;;;17.30;98.60;;;;;;10246093;28;20679;-82
2023/03/13 11:54:09;;;;;;;4.73;2.97;;;17.20;97.90;;;;;;10296466;28;20208;-82
2023/03/13 11:59:27;;;;;;;2.93;2.73;;;17.10;98.40;;;;;;10298513;28;20756;-83
2023/03/13 12:04:34;;;;;;;2.87;2.60;;;17.00;98.40;;;;;;10299860;28;20688;-83
2023/03/13 12:09:44;;;;;;;3.90;2.53;;;16.90;98.40;;;;;;10299731;28;20189;-81
2023/03/13 12:14:53;;;;;;;3.37;2.53;;;16.90;98.30;;;;;;10296701;28;20227;-81
2023/03/13 12:20:03;;;;;;;2.90;2.67;;;17.00;98.00;;;;;;10296564;28;20220;-82
2023/03/13 12:25:14;;;;;;;2.77;2.57;;;17.10;98.10;;;;;;10300446;28;20248;-82
2023/03/13 12:30:29;;;;;;;2.30;2.20;;;17.10;97.70;;;;;;10308859;28;20224;-80
2023/03/13 12:35:33;;;;;;;2.70;2.30;;;17.20;97.60;;;;;;10305557;28;20260;-81
2023/03/13 12:40:41;;;;;;;2.63;2.37;;;17.10;97.50;;;;;;10308548;28;20201;-80
2023/03/13 12:46:05;;;;;;;2.33;2.10;;;17.10;97.80;;;;;;10309985;28;20224;-81
2023/03/13 12:51:25;;;;;;;2.87;2.10;;;17.10;97.50;;;;;;10321378;28;20198;-81
2023/03/13 12:56:41;;;;;;;2.47;2.37;;;17.00;97.30;;;;;;10318490;28;20227;-82
2023/03/13 13:01:47;;;;;;;2.60;2.40;;;17.20;97.10;;;;;;10306041;28;20614;-83
2023/03/13 13:06:56;;;;;;;3.30;2.30;;;17.20;97.50;;;;;;10297616;28;20275;-80
2023/03/13 13:12:00;;;;;;;4.13;2.30;;;17.20;97.00;;;;;;10296909;28;20240;-79
2023/03/13 13:17:17;;;;;;;3.50;3.17;;;17.30;96.50;;;;;;10294869;28;20240;-79
2023/03/13 13:22:49;;;;;;;2.53;2.20;;;17.50;96.70;;;;;;10300740;28;20204;-80
2023/03/13 13:27:51;;;;;;;2.30;2.20;;;17.60;96.50;;;;;;10255838;28;20229;-80
2023/03/13 13:32:56;;;;;;;1.63;1.53;;;17.70;96.50;;;;;;10290991;28;20213;-81
2023/03/13 13:38:28;;;;;;;8.13;2.53;;;17.80;95.40;;;;;;10298401;28;20772;-81
2023/03/13 13:43:33;;;;;;;2.00;1.80;;;18.10;95.00;;;;;;10301643;28;20205;-80
2023/03/13 13:48:38;;;;;;;2.63;2.30;;;18.10;95.50;;;;;;10299502;28;20225;-81
2023/03/13 13:53:44;;;;;;;2.20;1.90;;;18.20;94.60;;;;;;10299503;28;20208;-82
2023/03/13 13:58:46;;;;;;;5.63;2.93;;;18.30;94.80;;;;;;10299003;28;20588;-82
2023/03/13 14:03:53;;;;;;;3.20;1.90;;;18.20;94.20;;;;;;10284632;28;20232;-82
2023/03/13 14:08:59;;;;;;;2.30;1.80;;;18.20;94.40;;;;;;10301051;28;20673;-84
2023/03/13 14:14:14;;;;;;;2.97;2.23;;;18.20;94.20;;;;;;10301710;28;20220;-82
2023/03/13 14:19:28;;;;;;;4.10;2.07;;;18.10;95.10;;;;;;10300009;28;20219;-85
2023/03/13 14:24:30;;;;;;;17.97;12.90;;;18.10;94.40;;;;;;10284659;28;20224;-81
2023/03/13 14:29:35;;;;;;;2.20;1.73;;;18.20;94.20;;;;;;10307888;28;20200;-81
2023/03/13 14:34:38;;;;;;;2.80;1.63;;;18.20;93.10;;;;;;10299012;28;20300;-83
2023/03/13 14:39:47;;;;;;;2.20;1.83;;;18.40;92.80;;;;;;10299822;28;20256;-83
2023/03/13 14:44:50;;;;;;;5.80;1.90;;;18.40;92.90;;;;;;10316104;28;20255;-82
2023/03/13 14:49:58;;;;;;;2.30;1.90;;;18.40;92.90;;;;;;10281159;28;20199;-82
2023/03/13 14:55:03;;;;;;;3.43;2.20;;;18.20;93.30;;;;;;10296685;28;20224;-84
2023/03/13 15:00:39;;;;;;;2.50;2.00;;;18.10;93.20;;;;;;10296550;28;20221;-82
2023/03/13 15:05:44;;;;;;;2.47;2.27;;;18.20;92.60;;;;;;10213809;29;20316;-82
2023/03/13 15:10:46;;;;;;;3.20;2.90;;;18.20;93.30;;;;;;10267556;28;20703;-82
2023/03/13 15:15:49;;;;;;;2.77;1.87;;;18.10;93.90;;;;;;10295296;28;20216;-82
2023/03/13 15:20:55;;;;;;;3.73;1.97;;;18.10;93.00;;;;;;10297131;28;20601;-85
2023/03/13 15:25:57;;;;;;;1.97;1.80;;;18.30;93.10;;;;;;10280578;28;20219;-82
2023/03/13 15:30:59;;;;;;;3.37;1.90;;;18.40;93.20;;;;;;10298836;28;20235;-81
2023/03/13 15:36:03;;;;;;;2.13;1.93;;;18.50;92.60;;;;;;10281207;28;20284;-81
2023/03/13 15:41:08;;;;;;;2.50;2.40;;;18.60;92.60;;;;;;10299868;28;20255;-82
2023/03/13 15:46:12;;;;;;;4.43;3.10;;;18.70;92.30;;;;;;10297170;28;20602;-84
2023/03/13 15:51:17;;;;;;;2.20;1.80;;;18.60;93.20;;;;;;10279594;28;20677;-84
2023/03/13 15:56:21;;;;;;;2.07;1.90;;;18.50;93.00;;;;;;10305384;28;20224;-84
2023/03/13 16:01:23;;;;;;;1.90;1.77;;;18.40;93.10;;;;;;10305337;28;20197;-82
2023/03/13 16:06:30;;;;;;;8.70;5.80;;;18.30;93.50;;;;;;10305667;28;20238;-82
2023/03/13 16:11:32;;;;;;;2.33;2.00;;;18.30;92.90;;;;;;10308199;28;20212;-84
2023/03/13 16:16:35;;;;;;;2.50;2.30;;;18.40;93.10;;;;;;10294991;28;20212;-84
2023/03/13 16:21:44;;;;;;;5.13;4.20;;;18.50;93.50;;;;;;10302076;28;20480;-83
2023/03/13 16:26:47;;;;;;;3.03;2.80;;;18.60;94.00;;;;;;10300972;28;20227;-84
2023/03/13 16:31:49;;;;;;;4.33;2.53;;;18.60;93.40;;;;;;10246462;29;20288;-85
2023/03/13 16:36:52;;;;;;;2.80;2.47;;;18.60;93.30;;;;;;10294692;28;20688;-84
2023/03/13 16:41:54;;;;;;;2.90;2.40;;;18.60;93.20;;;;;;10301989;28;20676;-84
2023/03/13 16:46:56;;;;;;;5.80;4.77;;;18.50;93.40;;;;;;10310267;28;20259;-82
2023/03/13 16:52:00;;;;;;;2.83;2.50;;;18.30;93.90;;;;;;10291166;28;20196;-84
2023/03/13 16:57:03;;;;;;;4.00;2.33;;;18.30;93.80;;;;;;10284926;28;20819;-85
2023/03/13 17:02:06;;;;;;;3.60;2.70;;;18.20;93.90;;;;;;10299633;28;20251;-84
2023/03/13 17:07:18;;;;;;;3.20;3.00;;;18.10;94.20;;;;;;10280575;28;20697;-82
2023/03/13 17:12:20;;;;;;;4.60;3.33;;;18.00;94.80;;;;;;10291304;28;20631;-84
2023/03/13 17:17:23;;;;;;;6.03;3.63;;;17.90;95.30;;;;;;10300372;28;20271;-83
2023/03/13 17:22:27;;;;;;;4.43;3.20;;;17.70;95.70;;;;;;10300879;28;20296;-82
2023/03/13 17:27:29;;;;;;;3.27;2.97;;;17.60;96.00;;;;;;10306933;28;20670;-83
2023/03/13 17:32:33;;;;;;;4.43;3.30;;;17.40;96.10;;;;;;10304709;28;20300;-82
2023/03/13 17:37:36;;;;;;;5.73;3.73;;;17.30;96.40;;;;;;10298309;28;20312;-84
2023/03/13 17:42:39;;;;;;;5.07;3.03;;;17.20;96.50;;;;;;10301382;28;20244;-81
2023/03/13 17:47:43;;;;;;;6.33;3.70;;;17.00;96.70;;;;;;10296996;28;20216;-83
2023/03/13 17:52:47;;;;;;;3.83;3.53;;;17.00;96.80;;;;;;10310382;28;20201;-83
2023/03/13 17:57:50;;;;;;;8.57;5.07;;;16.90;97.10;;;;;;10319901;28;20252;-83
2023/03/13 18:02:52;;;;;;;5.60;4.17;;;16.80;97.30;;;;;;10323533;28;20208;-84
2023/03/13 18:07:56;;;;;;;5.67;3.90;;;16.70;97.50;;;;;;10315158;28;20272;-82
2023/03/13 18:12:58;;;;;;;11.03;5.50;;;16.60;97.70;;;;;;10309660;28;20212;-81
2023/03/13 18:18:00;;;;;;;3.87;3.50;;;16.60;97.90;;;;;;10317139;28;20279;-82
2023/03/13 18:23:04;;;;;;;3.80;3.60;;;16.50;98.10;;;;;;10292118;28;20282;-81
2023/03/13 18:28:08;;;;;;;4.73;4.40;;;16.50;98.20;;;;;;10286819;28;20489;-84
2023/03/13 18:33:10;;;;;;;4.53;3.60;;;16.40;98.20;;;;;;10301722;28;20492;-82
2023/03/13 18:38:14;;;;;;;4.93;4.30;;;16.40;98.40;;;;;;10284757;28;20224;-84
2023/03/13 18:43:16;;;;;;;2.70;2.50;;;16.40;98.80;;;;;;10282872;28;20221;-86
2023/03/13 18:48:18;;;;;;;3.80;2.60;;;16.30;99.30;;;;;;10286796;28;20252;-82
2023/03/13 18:53:22;;;;;;;3.63;2.40;;;16.30;99.90;;;;;;10319210;28;20207;-82
2023/03/13 18:58:24;;;;;;;3.43;3.13;;;16.00;99.90;;;;;;10299337;28;20220;-81
2023/03/13 19:03:26;;;;;;;5.23;4.83;;;15.60;99.90;;;;;;10310194;28;20193;-81
2023/03/13 19:08:29;;;;;;;6.13;5.60;;;15.30;99.90;;;;;;10301012;28;20244;-79
2023/03/13 19:13:37;;;;;;;7.70;7.30;;;14.90;99.90;;;;;;10286572;28;20205;-80
2023/03/13 19:18:41;;;;;;;8.30;8.00;;;14.70;99.90;;;;;;10270958;28;20251;-80
2023/03/13 19:23:45;;;;;;;9.67;9.07;;;14.40;99.90;;;;;;10293444;28;20200;-80
2023/03/13 19:28:47;;;;;;;8.90;8.40;;;14.10;99.90;;;;;;10288457;28;20692;-80
2023/03/13 19:33:52;;;;;;;12.23;11.50;;;14.00;99.90;;;;;;10281253;28;20202;-80
2023/03/13 19:38:55;;;;;;;9.70;9.20;;;14.00;99.90;;;;;;10286259;28;20224;-79
2023/03/13 19:43:57;;;;;;;11.60;11.00;;;13.80;99.90;;;;;;10267647;28;20201;-79
2023/03/13 19:49:01;;;;;;;8.50;7.77;;;13.80;99.90;;;;;;10283903;28;20307;-79
2023/03/13 19:54:05;;;;;;;8.90;8.30;;;13.80;99.90;;;;;;10282085;28;20220;-80
2023/03/13 19:59:12;;;;;;;12.60;12.00;;;13.80;99.90;;;;;;10284997;28;20221;-79
2023/03/13 20:04:15;;;;;;;12.07;11.27;;;13.80;99.90;;;;;;10277221;28;20212;-82
2023/03/13 20:09:19;;;;;;;12.03;11.33;;;13.80;99.90;;;;;;10274773;28;20642;-79
2023/03/13 20:14:21;;;;;;;9.90;9.30;;;13.80;99.90;;;;;;10287785;28;20227;-81
2023/03/13 20:19:27;;;;;;;8.70;7.90;;;13.80;99.90;;;;;;10284595;28;20228;-81
2023/03/13 20:24:33;;;;;;;7.93;7.50;;;13.80;99.90;;;;;;10278810;28;20240;-81
2023/03/13 20:29:35;;;;;;;7.37;7.17;;;13.70;99.90;;;;;;10291119;28;20197;-81
2023/03/13 20:34:37;;;;;;;7.70;7.30;;;13.40;99.90;;;;;;10296726;28;20438;-82
2023/03/13 20:39:41;;;;;;;5.43;5.00;;;13.00;99.90;;;;;;10301323;28;20303;-83
2023/03/13 20:44:44;;;;;;;8.40;8.00;;;12.70;99.90;;;;;;10302096;28;20236;-81
2023/03/13 20:49:46;;;;;;;7.90;7.60;;;12.50;99.90;;;;;;10298215;28;20200;-81
2023/03/13 20:54:50;;;;;;;10.13;9.23;;;12.30;99.90;;;;;;10298215;28;20778;-78
2023/03/13 20:59:52;;;;;;;10.20;9.50;;;12.30;99.90;;;;;;10294129;28;20216;-81
2023/03/13 21:04:54;;;;;;;13.10;11.87;;;12.20;99.90;;;;;;10298963;28;20620;-79
2023/03/13 21:09:59;;;;;;;10.50;10.00;;;12.10;99.90;;;;;;10298934;28;20267;-82
2023/03/13 21:15:01;;;;;;;11.10;10.50;;;11.90;99.90;;;;;;10291418;28;20228;-81
2023/03/13 21:20:07;;;;;;;24.13;22.47;;;11.90;99.90;;;;;;10294342;28;20331;-81
2023/03/13 21:25:12;;;;;;;12.13;11.43;;;11.70;99.90;;;;;;10296528;28;20290;-81
2023/03/13 21:30:16;;;;;;;10.27;9.73;;;11.70;99.90;;;;;;10277491;28;20217;-80
2023/03/13 21:35:18;;;;;;;10.33;9.53;;;11.70;99.90;;;;;;10278740;28;20256;-81
2023/03/13 21:40:22;;;;;;;10.53;9.43;;;11.70;99.90;;;;;;10291138;28;20247;-81
2023/03/13 21:45:24;;;;;;;9.97;9.57;;;11.60;99.90;;;;;;10294802;28;20741;-81
2023/03/13 21:50:26;;;;;;;9.80;9.40;;;11.50;99.90;;;;;;10295859;28;20196;-81
2023/03/13 21:55:30;;;;;;;8.37;7.87;;;11.40;99.90;;;;;;10295335;28;20461;-81
2023/03/13 22:00:32;;;;;;;9.53;9.13;;;11.30;99.90;;;;;;10295760;28;20228;-81
2023/03/13 22:05:39;;;;;;;11.33;10.53;;;11.20;99.90;;;;;;10297728;28;20266;-82
2023/03/13 22:10:47;;;;;;;9.33;8.83;;;11.20;99.90;;;;;;10298450;28;20228;-82
2023/03/13 22:15:51;;;;;;;10.50;10.10;;;11.00;99.90;;;;;;10296449;28;20252;-81
2023/03/13 22:20:56;;;;;;;12.27;11.57;;;11.00;99.90;;;;;;10309945;28;20728;-81
2023/03/13 22:26:00;;;;;;;11.80;10.80;;;11.10;99.90;;;;;;10303667;28;20780;-82
2023/03/13 22:31:02;;;;;;;13.50;12.50;;;11.10;99.90;;;;;;10303662;28;20200;-82
2023/03/13 22:36:05;;;;;;;12.03;11.40;;;11.10;99.90;;;;;;10295186;28;20235;-82
2023/03/13 22:41:11;;;;;;;12.07;11.47;;;11.10;99.90;;;;;;10301833;28;20231;-80
2023/03/13 22:46:14;;;;;;;12.27;11.47;;;11.00;99.90;;;;;;10295945;28;20235;-81
2023/03/13 22:51:16;;;;;;;12.40;11.70;;;11.00;99.90;;;;;;10291318;28;20197;-79
2023/03/13 22:56:20;;;;;;;12.03;11.50;;;11.00;99.90;;;;;;10289314;28;20231;-79
2023/03/13 23:01:22;;;;;;;11.50;11.00;;;10.90;99.90;;;;;;10275738;28;20231;-78
2023/03/13 23:06:25;;;;;;;11.60;11.10;;;11.00;99.90;;;;;;10291639;28;20322;-80
2023/03/13 23:11:29;;;;;;;14.67;13.87;;;11.20;99.90;;;;;;10293896;28;20286;-78
2023/03/13 23:16:31;;;;;;;10.50;10.10;;;11.20;99.90;;;;;;10292090;28;20216;-78
2023/03/13 23:21:33;;;;;;;10.40;10.00;;;11.30;99.90;;;;;;10290528;28;20807;-79
2023/03/13 23:26:37;;;;;;;11.10;10.50;;;11.30;99.90;;;;;;10292623;28;20243;-79
2023/03/13 23:31:39;;;;;;;10.80;10.20;;;11.20;99.90;;;;;;10293031;28;20201;-81
2023/03/13 23:36:41;;;;;;;11.90;11.40;;;11.10;99.90;;;;;;10292606;28;20217;-81
2023/03/13 23:41:44;;;;;;;11.50;11.00;;;11.00;99.90;;;;;;10291333;28;20225;-81
2023/03/13 23:46:46;;;;;;;11.63;11.13;;;10.90;99.90;;;;;;10290200;28;20615;-79
2023/03/13 23:51:48;;;;;;;11.60;11.10;;;10.90;99.90;;;;;;10290983;28;20255;-78
2023/03/13 23:56:52;;;;;;;10.90;10.50;;;11.00;99.90;;;;;;10289905;28;20227;-79
